createdAt,value
2018-03-27T00:00:36.363Z,14.75
2018-03-27T00:03:46.847Z,18.40
2018-03-27T00:06:56.823Z,16.00
2018-03-27T00:10:07.451Z,18.65
2018-03-27T00:13:18.691Z,22.83
2018-03-27T00:16:29.849Z,19.05
2018-03-27T00:19:40.170Z,20.88
2018-03-27T00:22:50.169Z,20.50
2018-03-27T00:26:01.529Z,21.70
2018-03-27T00:29:23.825Z,19.83
2018-03-27T00:32:45.907Z,23.48
2018-03-27T00:36:07.304Z,17.05
2018-03-27T00:39:28.765Z,26.55
2018-03-27T00:42:54.501Z,22.75
2018-03-27T00:46:04.844Z,24.63
2018-03-27T00:49:14.818Z,23.23
2018-03-27T00:52:24.877Z,23.95
2018-03-27T00:55:35.056Z,25.00
2018-03-27T00:58:44.987Z,16.65
2018-03-27T01:01:55.261Z,20.67
2018-03-27T01:05:09.859Z,25.83
2018-03-27T01:08:19.818Z,21.67
2018-03-27T01:11:29.843Z,22.90
2018-03-27T01:14:40.034Z,23.98
2018-03-27T01:17:50.475Z,23.35
2018-03-27T01:21:00.558Z,19.80
2018-03-27T01:24:11.106Z,21.90
2018-03-27T01:27:21.571Z,20.70
2018-03-27T01:30:38.293Z,19.60
2018-03-27T01:33:48.744Z,22.17
2018-03-27T01:36:58.918Z,22.05
2018-03-27T01:40:09.436Z,21.42
2018-03-27T01:43:19.841Z,14.20
2018-03-27T01:46:30.518Z,19.92
2018-03-27T01:49:40.820Z,19.37
2018-03-27T01:52:51.568Z,19.35
2018-03-27T01:56:01.614Z,21.83
2018-03-27T01:59:11.684Z,21.87
2018-03-27T02:02:22.082Z,19.70
2018-03-27T02:05:31.944Z,24.37
2018-03-27T02:08:42.171Z,18.05
2018-03-27T02:11:58.810Z,12.10
2018-03-27T02:15:14.773Z,20.35
2018-03-27T02:18:30.964Z,17.90
2018-03-27T02:21:41.169Z,21.75
2018-03-27T02:24:52.214Z,21.80
2018-03-27T02:31:37.869Z,19.12
2018-03-27T02:34:48.181Z,23.17
2018-03-27T02:37:58.276Z,22.85
2018-03-27T02:41:08.717Z,21.00
2018-03-27T02:44:19.500Z,10.85
2018-03-27T02:47:29.647Z,19.90
2018-03-27T02:50:39.721Z,19.37
2018-03-27T02:53:49.576Z,19.85
2018-03-27T02:56:59.895Z,24.15
2018-03-27T03:00:09.639Z,24.65
2018-03-27T03:03:26.893Z,21.37
2018-03-27T03:06:37.361Z,20.58
2018-03-27T03:09:47.380Z,21.30
2018-03-27T03:12:57.888Z,15.75
2018-03-27T03:16:07.788Z,19.08
2018-03-27T03:19:17.867Z,21.30
2018-03-27T03:22:27.957Z,15.07
2018-03-27T03:25:38.119Z,22.02
2018-03-27T03:28:48.186Z,15.57
2018-03-27T03:31:58.370Z,20.02
2018-03-27T03:35:08.237Z,18.50
2018-03-27T03:38:18.451Z,17.80
2018-03-27T03:41:28.792Z,14.87
2018-03-27T03:44:39.470Z,14.87
2018-03-27T03:47:49.646Z,18.65
2018-03-27T03:50:59.710Z,18.80
2018-03-27T03:54:09.579Z,16.60
2018-03-27T03:57:19.814Z,20.88
2018-03-27T04:00:30.009Z,18.33
2018-03-27T04:03:40.064Z,18.60
2018-03-27T04:06:50.120Z,20.55
2018-03-27T04:10:00.351Z,15.82
2018-03-27T04:13:10.323Z,14.65
2018-03-27T04:16:21.271Z,16.40
2018-03-27T04:19:31.495Z,13.88
2018-03-27T04:22:41.248Z,18.15
2018-03-27T04:25:51.257Z,13.70
2018-03-27T04:29:01.704Z,16.20
2018-03-27T04:32:11.730Z,15.48
2018-03-27T04:35:21.714Z,14.85
2018-03-27T04:38:32.418Z,18.92
2018-03-27T04:41:43.123Z,17.33
2018-03-27T04:44:53.272Z,17.33
2018-03-27T04:48:03.423Z,17.85
2018-03-27T04:51:13.941Z,18.95
2018-03-27T04:54:23.729Z,16.80
2018-03-27T04:57:33.478Z,15.38
2018-03-27T05:00:43.450Z,15.73
2018-03-27T05:03:53.958Z,18.83
2018-03-27T05:07:04.063Z,17.02
2018-03-27T05:10:14.261Z,13.52
2018-03-27T05:13:25.333Z,16.42
2018-03-27T05:16:35.193Z,20.67
2018-03-27T05:19:45.163Z,16.40
2018-03-27T05:22:57.035Z,16.23
2018-03-27T05:26:07.314Z,17.60
2018-03-27T05:29:17.403Z,22.05
2018-03-27T05:32:28.059Z,17.77
2018-03-27T05:35:38.913Z,18.90
2018-03-27T05:38:49.472Z,19.73
2018-03-27T05:41:59.569Z,25.98
2018-03-27T05:45:09.514Z,23.33
2018-03-27T05:48:19.655Z,22.90
2018-03-27T05:51:29.945Z,24.92
2018-03-27T05:54:40.034Z,19.87
2018-03-27T05:57:50.418Z,22.62
2018-03-27T06:01:00.164Z,26.77
2018-03-27T06:04:10.220Z,26.48
2018-03-27T06:07:21.328Z,22.83
2018-03-27T06:10:31.654Z,27.35
2018-03-27T06:13:41.647Z,21.77
2018-03-27T06:16:51.606Z,21.30
2018-03-27T06:20:02.263Z,25.50
2018-03-27T06:23:13.309Z,18.12
2018-03-27T06:26:23.927Z,27.05
2018-03-27T06:29:33.991Z,25.85
2018-03-27T06:32:43.872Z,27.67
2018-03-27T06:35:53.561Z,18.35
2018-03-27T06:39:03.941Z,26.20
2018-03-27T06:42:14.681Z,34.13
2018-03-27T06:45:24.509Z,36.05
2018-03-27T06:48:36.263Z,31.42
2018-03-27T06:51:46.603Z,35.47
2018-03-27T06:54:56.602Z,40.53
2018-03-27T06:58:06.920Z,29.10
2018-03-27T07:01:16.862Z,23.27
2018-03-27T07:04:26.737Z,34.30
2018-03-27T07:07:36.522Z,43.25
2018-03-27T07:10:46.270Z,24.50
2018-03-27T07:13:56.512Z,30.67
2018-03-27T07:17:06.649Z,22.33
2018-03-27T07:20:16.776Z,44.20
2018-03-27T07:23:26.512Z,40.65
2018-03-27T07:26:36.817Z,19.60
2018-03-27T07:29:46.806Z,36.50
2018-03-27T07:32:57.442Z,33.28
2018-03-27T07:36:08.699Z,32.42
2018-03-27T07:39:19.345Z,37.33
2018-03-27T07:42:30.246Z,41.75
2018-03-27T07:45:41.038Z,42.45
2018-03-27T07:48:51.700Z,37.45
2018-03-27T07:52:01.538Z,40.85
2018-03-27T07:55:11.445Z,27.45
2018-03-27T07:58:21.008Z,34.55
2018-03-27T08:01:31.532Z,39.22
2018-03-27T08:04:41.502Z,44.25
2018-03-27T08:07:51.234Z,34.88
2018-03-27T08:11:01.265Z,41.60
2018-03-27T08:14:11.622Z,32.92
2018-03-27T08:17:21.941Z,34.30
2018-03-27T08:20:40.186Z,34.08
2018-03-27T08:27:25.235Z,30.25
2018-03-27T08:30:41.124Z,31.92
2018-03-27T08:33:51.563Z,31.80
2018-03-27T08:37:21.976Z,35.03
2018-03-27T08:40:31.775Z,27.80
2018-03-27T08:44:01.558Z,28.42
2018-03-27T08:47:11.510Z,28.98
2018-03-27T08:50:21.958Z,24.58
2018-03-27T08:53:44.863Z,31.23
2018-03-27T08:56:55.740Z,26.02
2018-03-27T09:00:06.216Z,25.98
2018-03-27T09:03:16.225Z,29.98
2018-03-27T09:06:26.011Z,23.60
2018-03-27T09:09:36.098Z,20.90
2018-03-27T09:12:46.442Z,23.77
2018-03-27T09:15:56.618Z,24.90
2018-03-27T09:19:07.213Z,26.75
2018-03-27T09:22:17.672Z,21.20
2018-03-27T09:25:28.215Z,24.90
2018-03-27T09:28:38.523Z,21.17
2018-03-27T09:31:49.355Z,20.25
2018-03-27T09:35:00.725Z,17.58
2018-03-27T09:38:10.733Z,25.23
2018-03-27T09:41:27.173Z,22.27
2018-03-27T09:44:37.026Z,22.73
2018-03-27T09:47:47.189Z,14.07
2018-03-27T09:50:57.829Z,20.60
2018-03-27T09:54:08.755Z,19.77
2018-03-27T09:57:19.415Z,20.05
2018-03-27T10:00:35.502Z,18.67
2018-03-27T10:03:45.333Z,24.55
2018-03-27T10:06:55.130Z,24.30
2018-03-27T10:10:05.915Z,20.75
2018-03-27T10:13:16.055Z,22.37
2018-03-27T10:16:26.306Z,17.73
2018-03-27T10:19:36.297Z,22.70
2018-03-27T10:22:46.410Z,22.23
2018-03-27T10:25:56.511Z,22.77
2018-03-27T10:29:06.719Z,26.23
2018-03-27T10:32:17.226Z,19.65
2018-03-27T10:35:28.256Z,19.90
2018-03-27T10:38:38.887Z,18.25
2018-03-27T10:41:49.425Z,19.80
2018-03-27T10:45:00.495Z,15.65
2018-03-27T10:48:11.107Z,15.68
2018-03-27T10:51:20.896Z,13.85
2018-03-27T10:54:30.758Z,16.30
2018-03-27T10:57:41.322Z,15.20
2018-03-27T11:00:51.306Z,20.52
2018-03-27T11:04:01.283Z,17.05
2018-03-27T11:07:12.256Z,14.93
2018-03-27T11:10:22.707Z,18.77
2018-03-27T11:13:33.346Z,13.43
2018-03-27T11:16:43.768Z,11.93
2018-03-27T11:19:53.725Z,16.92
2018-03-27T11:23:03.539Z,16.62
2018-03-27T11:26:13.759Z,19.75
2018-03-27T11:29:24.185Z,17.48
2018-03-27T11:32:34.619Z,17.20
2018-03-27T11:35:46.314Z,16.40
2018-03-27T11:38:56.357Z,9.25
2018-03-27T11:42:06.690Z,16.73
2018-03-27T11:45:17.166Z,13.55
2018-03-27T11:48:27.428Z,12.85
2018-03-27T11:51:37.944Z,16.02
2018-03-27T11:54:48.963Z,16.23
2018-03-27T11:57:59.370Z,12.88
2018-03-27T12:01:09.303Z,16.73
2018-03-27T12:04:19.566Z,13.52
2018-03-27T12:07:29.480Z,18.50
2018-03-27T12:10:39.835Z,11.05
2018-03-27T12:13:49.767Z,11.00
2018-03-27T12:16:59.739Z,14.00
2018-03-27T12:20:10.120Z,12.57
2018-03-27T12:23:20.306Z,15.75
2018-03-27T12:26:29.872Z,11.98
2018-03-27T12:29:40.227Z,19.08
2018-03-27T12:32:50.462Z,14.50
2018-03-27T12:36:00.311Z,16.77
2018-03-27T12:39:10.612Z,11.18
2018-03-27T12:42:20.804Z,18.87
2018-03-27T12:45:30.881Z,15.20
2018-03-27T12:48:42.028Z,16.23
2018-03-27T12:51:52.462Z,16.52
2018-03-27T12:55:02.578Z,16.05
2018-03-27T12:58:13.341Z,17.50
2018-03-27T13:01:23.708Z,16.83
2018-03-27T13:04:33.546Z,17.42
2018-03-27T13:07:43.516Z,13.60
2018-03-27T13:10:54.269Z,17.45
2018-03-27T13:14:04.540Z,17.15
2018-03-27T13:17:14.469Z,13.45
2018-03-27T13:20:24.555Z,17.98
2018-03-27T13:23:34.400Z,15.85
2018-03-27T13:26:45.194Z,19.37
2018-03-27T13:29:56.091Z,18.17
2018-03-27T13:33:06.472Z,12.55
2018-03-27T13:36:16.499Z,10.70
2018-03-27T13:39:26.491Z,16.87
2018-03-27T13:42:36.622Z,16.55
2018-03-27T13:45:47.316Z,16.75
2018-03-27T13:48:57.123Z,10.95
2018-03-27T13:52:07.608Z,12.30
2018-03-27T13:55:18.183Z,14.10
2018-03-27T13:58:29.011Z,17.05
2018-03-27T14:01:39.131Z,14.40
2018-03-27T14:04:49.211Z,14.07
2018-03-27T14:07:59.095Z,19.20
2018-03-27T14:11:09.128Z,14.05
2018-03-27T14:14:19.810Z,16.75
2018-03-27T14:17:30.113Z,17.75
2018-03-27T14:20:40.755Z,13.60
2018-03-27T14:23:51.339Z,17.83
2018-03-27T14:27:01.802Z,19.77
2018-03-27T14:30:13.410Z,14.45
2018-03-27T14:33:23.917Z,17.08
2018-03-27T14:36:34.478Z,14.93
2018-03-27T14:39:45.745Z,17.52
2018-03-27T14:42:56.304Z,15.95
2018-03-27T14:46:06.271Z,33.10
2018-03-27T14:49:16.019Z,17.20
2018-03-27T14:52:26.106Z,18.85
2018-03-27T14:55:37.202Z,14.90
2018-03-27T14:58:48.079Z,14.73
2018-03-27T15:01:58.388Z,14.13
2018-03-27T15:05:09.777Z,12.85
2018-03-27T15:08:19.891Z,15.93
2018-03-27T15:11:30.553Z,18.70
2018-03-27T15:14:40.712Z,17.50
2018-03-27T15:17:50.587Z,14.85
2018-03-27T15:21:00.543Z,14.70
2018-03-27T15:24:10.484Z,17.65
2018-03-27T15:27:20.377Z,17.30
2018-03-27T15:30:31.054Z,13.57
2018-03-27T15:33:41.626Z,15.88
2018-03-27T15:36:51.676Z,15.40
2018-03-27T15:40:02.897Z,17.00
2018-03-27T15:43:13.189Z,18.08
2018-03-27T15:46:23.762Z,13.40
2018-03-27T15:49:34.006Z,16.75
2018-03-27T15:52:44.110Z,18.15
2018-03-27T15:55:53.998Z,17.60
2018-03-27T15:59:06.383Z,15.30
2018-03-27T16:02:17.313Z,16.02
2018-03-27T16:05:27.750Z,22.40
2018-03-27T16:08:38.112Z,16.92
2018-03-27T16:11:48.846Z,18.83
2018-03-27T16:14:59.224Z,15.15
2018-03-27T16:18:09.213Z,19.50
2018-03-27T16:21:19.386Z,17.12
2018-03-27T16:24:29.598Z,15.75
2018-03-27T16:27:39.624Z,16.15
2018-03-27T16:30:49.683Z,18.30
2018-03-27T16:33:59.746Z,18.45
2018-03-27T16:37:10.507Z,16.35
2018-03-27T16:40:20.874Z,17.70
2018-03-27T16:43:31.430Z,14.27
2018-03-27T16:46:41.708Z,16.52
2018-03-27T16:49:51.584Z,15.75
2018-03-27T16:53:01.668Z,17.08
2018-03-27T16:56:12.438Z,21.77
2018-03-27T16:59:22.563Z,16.15
2018-03-27T17:02:32.461Z,19.73
2018-03-27T17:05:42.924Z,16.55
2018-03-27T17:08:52.700Z,16.42
2018-03-27T17:12:02.656Z,15.93
2018-03-27T17:15:13.513Z,16.45
2018-03-27T17:18:23.890Z,20.75
2018-03-27T17:21:34.342Z,19.52
2018-03-27T17:24:44.612Z,17.58
2018-03-27T17:27:55.823Z,14.95
2018-03-27T17:31:06.181Z,17.02
2018-03-27T17:34:16.685Z,15.25
2018-03-27T17:37:27.128Z,18.85
2018-03-27T17:40:37.529Z,14.52
2018-03-27T17:43:48.155Z,15.25
2018-03-27T17:46:58.083Z,14.57
2018-03-27T17:50:07.899Z,15.93
2018-03-27T17:53:19.204Z,18.00
2018-03-27T17:56:29.689Z,15.65
2018-03-27T17:59:39.816Z,13.90
2018-03-27T18:02:49.959Z,17.55
2018-03-27T18:06:00.413Z,13.40
2018-03-27T18:09:10.296Z,16.02
2018-03-27T18:12:20.681Z,18.92
2018-03-27T18:15:30.611Z,18.52
2018-03-27T18:18:40.812Z,17.33
2018-03-27T18:21:51.092Z,15.60
2018-03-27T18:25:01.487Z,17.33
2018-03-27T18:28:11.746Z,19.67
2018-03-27T18:31:22.686Z,17.23
2018-03-27T18:34:33.110Z,20.35
2018-03-27T18:37:43.009Z,18.85
2018-03-27T18:40:52.875Z,19.98
2018-03-27T18:44:02.704Z,18.30
2018-03-27T18:47:12.723Z,17.15
2018-03-27T18:50:23.440Z,20.27
2018-03-27T18:53:33.219Z,19.10
2018-03-27T18:56:44.012Z,18.37
2018-03-27T18:59:54.630Z,32.45
2018-03-27T19:03:05.055Z,32.85
2018-03-27T19:06:14.906Z,25.95
2018-03-27T19:09:25.048Z,20.15
2018-03-27T19:12:35.221Z,17.12
2018-03-27T19:15:45.494Z,19.67
2018-03-27T19:18:55.922Z,17.60
2018-03-27T19:22:05.755Z,18.70
2018-03-27T19:25:15.778Z,17.75
2018-03-27T19:28:26.551Z,15.82
2018-03-27T19:31:36.892Z,16.80
2018-03-27T19:34:46.853Z,16.55
2018-03-27T19:37:57.182Z,18.10
2018-03-27T19:41:07.460Z,19.40
2018-03-27T19:44:18.398Z,18.10
2018-03-27T19:47:28.347Z,15.98
2018-03-27T19:50:39.031Z,19.08
2018-03-27T19:53:49.259Z,17.25
2018-03-27T19:56:59.133Z,19.42
2018-03-27T20:00:09.108Z,18.23
2018-03-27T20:03:18.975Z,17.60
2018-03-27T20:06:28.697Z,17.55
2018-03-27T20:09:39.399Z,14.43
2018-03-27T20:12:50.166Z,18.30
2018-03-27T20:16:00.442Z,16.73
2018-03-27T20:19:11.261Z,19.77
2018-03-27T20:22:22.277Z,13.38
2018-03-27T20:25:33.048Z,16.15
2018-03-27T20:28:43.405Z,16.80
2018-03-27T20:31:58.964Z,13.98
2018-03-27T20:35:09.431Z,15.60
2018-03-27T20:38:19.046Z,18.00
2018-03-27T20:41:29.460Z,16.12
2018-03-27T20:44:39.394Z,17.62
2018-03-27T20:47:50.507Z,15.52
2018-03-27T20:51:01.148Z,16.15
2018-03-27T20:54:11.588Z,19.17
2018-03-27T20:57:21.931Z,20.17
2018-03-27T21:00:32.001Z,15.38
2018-03-27T21:03:42.025Z,15.30
2018-03-27T21:06:52.935Z,15.60
2018-03-27T21:10:03.451Z,14.27
2018-03-27T21:13:13.768Z,16.05
2018-03-27T21:16:23.921Z,17.58
2018-03-27T21:19:34.898Z,15.30
2018-03-27T21:22:45.406Z,14.80
2018-03-27T21:25:55.928Z,15.80
2018-03-27T21:29:06.647Z,15.18
2018-03-27T21:32:16.999Z,14.43
2018-03-27T21:35:28.122Z,14.93
2018-03-27T21:38:38.106Z,13.45
2018-03-27T21:41:48.343Z,15.10
2018-03-27T21:44:58.337Z,15.35
2018-03-27T21:48:08.618Z,15.43
2018-03-27T21:51:19.366Z,16.25
2018-03-27T21:54:30.076Z,17.45
2018-03-27T21:57:39.815Z,16.30
2018-03-27T22:00:49.668Z,15.35
2018-03-27T22:04:00.276Z,14.57
2018-03-27T22:07:10.935Z,17.00
2018-03-27T22:10:20.975Z,15.98
2018-03-27T22:13:31.007Z,17.30
2018-03-27T22:16:40.968Z,15.05
2018-03-27T22:19:51.488Z,13.77
2018-03-27T22:23:01.861Z,16.27
2018-03-27T22:26:11.775Z,15.35
2018-03-27T22:29:22.090Z,14.23
2018-03-27T22:32:32.486Z,16.33
2018-03-27T22:35:42.771Z,14.25
2018-03-27T22:38:53.310Z,15.85
2018-03-27T22:42:04.245Z,15.50
2018-03-27T22:45:14.958Z,16.50
2018-03-27T22:48:25.664Z,16.20
2018-03-27T22:51:35.942Z,17.00
2018-03-27T22:54:46.462Z,16.70
2018-03-27T22:57:56.443Z,15.27
2018-03-27T23:01:06.620Z,15.63
2018-03-27T23:04:16.465Z,15.15
2018-03-27T23:07:26.315Z,17.60
2018-03-27T23:10:36.717Z,15.80
2018-03-27T23:13:46.730Z,17.20
2018-03-27T23:16:57.488Z,18.33
2018-03-27T23:20:07.376Z,16.62
2018-03-27T23:23:18.070Z,17.77
2018-03-27T23:26:27.863Z,19.25
2018-03-27T23:29:38.145Z,17.70
2018-03-27T23:32:47.942Z,16.37
2018-03-27T23:35:58.597Z,20.00
2018-03-27T23:39:08.563Z,19.35
2018-03-27T23:42:18.688Z,15.23
2018-03-27T23:45:28.666Z,18.90
2018-03-27T23:48:38.659Z,20.92
2018-03-27T23:51:48.426Z,17.23
2018-03-27T23:54:58.759Z,16.95
2018-03-27T23:58:08.935Z,15.00
